Time;durP1;ratioP1;P1;durP2;ratioP2;P2;SDS_P1;SDS_P2;PMS_P1;PMS_P2;Temp;Humidity;BMP_temperature;BMP_pressure;BME280_temperature;BME280_humidity;BME280_pressure;Samples;Min_cycle;Max_cycle;Signal;HPM_P1;HPM_P2
2021/08/02 00:02:00;;;;;;;1.80;1.70;;;17.10;99.90;;;;;;5036191;28;20206;-69
2021/08/02 00:04:37;;;;;;;1.80;1.70;;;17.20;99.90;;;;;;5036142;28;20274;-69
2021/08/02 00:07:05;;;;;;;2.45;2.25;;;17.30;99.90;;;;;;5035814;28;20227;-69
2021/08/02 00:09:35;;;;;;;2.50;2.30;;;17.20;99.90;;;;;;5036117;28;20306;-69
2021/08/02 00:12:04;;;;;;;2.65;2.17;;;17.20;99.90;;;;;;5036069;28;20235;-69
2021/08/02 00:14:32;;;;;;;2.00;1.90;;;17.20;99.90;;;;;;5035993;28;20204;-69
2021/08/02 00:17:01;;;;;;;2.50;2.30;;;17.10;99.90;;;;;;5035476;28;20236;-69
2021/08/02 00:19:28;;;;;;;2.20;2.00;;;17.20;99.90;;;;;;5036202;28;20207;-69
2021/08/02 00:21:55;;;;;;;2.92;2.30;;;17.20;99.90;;;;;;5035686;28;20658;-69
2021/08/02 00:24:23;;;;;;;1.88;1.77;;;17.10;99.90;;;;;;5035587;28;20231;-69
2021/08/02 00:26:50;;;;;;;2.78;2.20;;;17.00;99.90;;;;;;5035436;28;20238;-69
2021/08/02 00:29:20;;;;;;;2.72;2.42;;;17.00;99.90;;;;;;5035510;28;20211;-69
2021/08/02 00:31:47;;;;;;;1.45;1.35;;;17.00;99.90;;;;;;5035717;28;20204;-69
2021/08/02 00:34:16;;;;;;;2.10;2.00;;;17.00;99.90;;;;;;5035446;28;20654;-69
2021/08/02 00:36:45;;;;;;;2.47;2.28;;;17.10;99.90;;;;;;5035198;28;20680;-69
2021/08/02 00:39:23;;;;;;;2.50;2.25;;;17.10;99.90;;;;;;5035663;28;20211;-69
2021/08/02 00:42:45;;;;;;;2.20;2.00;;;17.10;99.90;;;;;;5035584;28;20573;-70
2021/08/02 00:45:14;;;;;;;1.77;1.67;;;17.20;99.90;;;;;;5035196;28;20306;-69
2021/08/02 00:47:47;;;;;;;2.47;2.28;;;17.20;99.90;;;;;;5035226;28;20579;-69
2021/08/02 00:50:18;;;;;;;2.90;2.17;;;17.20;99.90;;;;;;5035381;28;20283;-69
2021/08/02 00:52:50;;;;;;;2.08;1.90;;;17.20;99.90;;;;;;5035100;28;20627;-68
2021/08/02 00:55:17;;;;;;;2.40;2.20;;;17.20;99.90;;;;;;5034883;28;20670;-69
2021/08/02 00:57:47;;;;;;;2.20;2.00;;;17.30;99.90;;;;;;5033801;28;20315;-69
2021/08/02 01:00:17;;;;;;;2.05;1.90;;;17.40;99.90;;;;;;5035154;28;20678;-69
2021/08/02 01:02:49;;;;;;;3.47;2.00;;;17.30;99.90;;;;;;5035075;28;20780;-69
2021/08/02 01:05:18;;;;;;;1.75;1.65;;;17.40;99.90;;;;;;5034884;28;20581;-68
2021/08/02 01:07:47;;;;;;;2.13;1.98;;;17.30;99.90;;;;;;5034742;28;20240;-69
2021/08/02 01:10:15;;;;;;;3.08;2.05;;;17.20;99.90;;;;;;5034843;28;20674;-69
2021/08/02 01:12:46;;;;;;;1.70;1.60;;;17.20;99.90;;;;;;5034767;28;20200;-69
2021/08/02 01:15:14;;;;;;;2.08;1.85;;;17.20;99.90;;;;;;5034700;28;20211;-69
2021/08/02 01:17:42;;;;;;;2.20;2.00;;;17.20;99.90;;;;;;5034443;28;20236;-69
2021/08/02 01:20:12;;;;;;;2.35;1.90;;;17.30;99.90;;;;;;5034751;28;20234;-69
2021/08/02 01:22:42;;;;;;;2.50;2.25;;;17.30;99.90;;;;;;5034836;28;20212;-69
2021/08/02 01:25:57;;;;;;;2.00;1.88;;;17.30;99.90;;;;;;5034326;28;20224;-69
2021/08/02 01:29:00;;;;;;;2.10;1.77;;;17.40;99.90;;;;;;5034642;28;20290;-69
2021/08/02 01:31:28;;;;;;;2.38;2.20;;;17.40;99.90;;;;;;5034573;28;20204;-69
2021/08/02 01:33:55;;;;;;;2.50;1.80;;;17.40;99.90;;;;;;5034736;28;20208;-69
2021/08/02 01:36:21;;;;;;;2.13;2.00;;;17.30;99.90;;;;;;5034202;28;20676;-69
2021/08/02 01:38:50;;;;;;;2.40;2.20;;;17.20;99.90;;;;;;5034417;28;20319;-68
2021/08/02 01:41:17;;;;;;;3.30;2.00;;;17.10;99.90;;;;;;5034390;28;20204;-69
2021/08/02 01:43:44;;;;;;;2.40;2.20;;;17.00;99.90;;;;;;5034118;28;20696;-69
2021/08/02 01:46:17;;;;;;;2.30;2.10;;;17.00;99.90;;;;;;5033974;28;20203;-69
2021/08/02 01:48:51;;;;;;;2.30;2.10;;;16.90;99.90;;;;;;5034158;28;20228;-69
2021/08/02 01:51:23;;;;;;;2.55;2.15;;;16.80;99.90;;;;;;5034026;28;20683;-69
2021/08/02 01:54:00;;;;;;;2.53;2.33;;;16.90;99.90;;;;;;5034210;28;20207;-69
2021/08/02 01:56:35;;;;;;;2.50;2.30;;;17.10;99.90;;;;;;5033997;28;20203;-68
2021/08/02 01:59:06;;;;;;;2.20;2.00;;;17.10;99.90;;;;;;5034113;28;20199;-69
2021/08/02 02:01:35;;;;;;;2.45;2.25;;;17.10;99.90;;;;;;5034105;28;20214;-69
2021/08/02 02:04:04;;;;;;;2.00;1.90;;;17.00;99.90;;;;;;5033881;28;20227;-69
2021/08/02 02:06:38;;;;;;;2.58;2.38;;;17.00;99.90;;;;;;5033895;28;20298;-69
2021/08/02 02:09:09;;;;;;;2.08;1.92;;;17.10;99.90;;;;;;5033716;28;20188;-69
2021/08/02 02:11:41;;;;;;;2.40;2.20;;;17.00;99.90;;;;;;5033844;28;20208;-69
2021/08/02 02:14:10;;;;;;;2.40;2.20;;;16.90;99.90;;;;;;5033625;28;20666;-69
2021/08/02 02:16:39;;;;;;;2.42;1.90;;;17.00;99.90;;;;;;5033567;28;20215;-69
2021/08/02 02:19:07;;;;;;;2.08;1.98;;;17.10;99.90;;;;;;5033859;28;20295;-69
2021/08/02 02:21:35;;;;;;;2.10;2.00;;;17.10;99.90;;;;;;5033739;28;20206;-69
2021/08/02 02:24:03;;;;;;;2.40;2.05;;;17.00;99.90;;;;;;5033633;28;20593;-69
2021/08/02 02:26:34;;;;;;;1.98;1.85;;;17.00;99.90;;;;;;5033384;28;20569;-69
2021/08/02 02:29:02;;;;;;;1.85;1.70;;;16.90;99.90;;;;;;5033971;28;20196;-69
2021/08/02 02:31:30;;;;;;;2.38;2.17;;;16.80;99.90;;;;;;5033485;28;20700;-69
2021/08/02 02:34:01;;;;;;;2.50;2.30;;;16.80;99.90;;;;;;5033628;28;20658;-69
2021/08/02 02:36:30;;;;;;;2.70;2.50;;;16.70;99.90;;;;;;5033150;28;20208;-69
2021/08/02 02:38:57;;;;;;;2.20;2.00;;;16.70;99.90;;;;;;5033537;28;20206;-69
2021/08/02 02:41:25;;;;;;;1.75;1.65;;;16.60;99.90;;;;;;5033444;28;20211;-69
2021/08/02 02:43:54;;;;;;;4.28;2.17;;;16.50;99.90;;;;;;5033442;28;20207;-69
2021/08/02 02:46:23;;;;;;;2.80;2.50;;;16.40;99.90;;;;;;5033266;28;20203;-69
2021/08/02 02:48:50;;;;;;;2.22;2.03;;;16.40;99.90;;;;;;5033177;28;20228;-69
2021/08/02 02:51:18;;;;;;;2.15;1.95;;;16.30;99.90;;;;;;5033351;28;20219;-69
2021/08/02 02:53:46;;;;;;;2.50;2.30;;;16.40;99.90;;;;;;5033409;28;20207;-69
2021/08/02 02:56:16;;;;;;;2.60;2.40;;;16.40;99.90;;;;;;5033227;28;20555;-69
2021/08/02 02:58:43;;;;;;;3.10;2.55;;;16.40;99.90;;;;;;5033354;28;20237;-69
2021/08/02 03:01:16;;;;;;;2.53;2.33;;;16.50;99.90;;;;;;5033296;28;20217;-69
2021/08/02 03:03:48;;;;;;;3.25;2.03;;;16.50;99.90;;;;;;5033325;28;20225;-69
2021/08/02 03:06:16;;;;;;;2.30;2.10;;;16.60;99.90;;;;;;5033134;28;20598;-69
2021/08/02 03:08:44;;;;;;;2.22;2.00;;;16.50;99.90;;;;;;5032941;28;20234;-69
2021/08/02 03:11:15;;;;;;;2.20;2.00;;;16.60;99.90;;;;;;5033255;28;20633;-69
2021/08/02 03:13:42;;;;;;;2.63;2.42;;;16.60;99.90;;;;;;5033323;28;20565;-69
2021/08/02 03:16:09;;;;;;;4.68;2.25;;;16.60;99.90;;;;;;5032716;28;20230;-69
2021/08/02 03:18:37;;;;;;;2.03;1.88;;;16.70;99.90;;;;;;5033090;28;20235;-69
2021/08/02 03:21:05;;;;;;;2.22;1.95;;;16.50;99.90;;;;;;5035412;28;20298;-69
2021/08/02 03:23:38;;;;;;;2.45;2.15;;;16.60;99.90;;;;;;5036962;28;20204;-69
2021/08/02 03:26:10;;;;;;;2.10;1.90;;;16.60;99.90;;;;;;5036792;28;20231;-69
2021/08/02 03:28:44;;;;;;;2.08;1.85;;;16.50;99.90;;;;;;5036588;28;20231;-69
2021/08/02 03:31:14;;;;;;;2.53;2.25;;;16.30;99.90;;;;;;5036709;28;20209;-69
2021/08/02 03:33:44;;;;;;;3.33;2.10;;;16.20;99.90;;;;;;5036843;28;20212;-69
2021/08/02 03:36:14;;;;;;;3.50;2.60;;;16.10;99.90;;;;;;5036476;28;20672;-69
2021/08/02 03:38:44;;;;;;;2.75;2.10;;;16.10;99.90;;;;;;5036408;28;20227;-69
2021/08/02 03:41:12;;;;;;;2.50;2.30;;;16.20;99.90;;;;;;5036559;28;20208;-69
2021/08/02 03:43:40;;;;;;;2.88;2.15;;;16.30;99.90;;;;;;5036613;28;20204;-69
2021/08/02 03:46:08;;;;;;;2.67;2.28;;;16.40;99.90;;;;;;5036645;28;20232;-69
2021/08/02 03:48:36;;;;;;;2.47;2.30;;;16.50;99.90;;;;;;5036214;28;20234;-69
2021/08/02 03:51:05;;;;;;;1.92;1.83;;;16.50;99.90;;;;;;5036389;28;20204;-69
2021/08/02 03:53:39;;;;;;;2.47;2.20;;;16.50;99.90;;;;;;5036325;28;20200;-69
2021/08/02 03:56:08;;;;;;;2.45;2.25;;;16.50;99.90;;;;;;5036349;28;20200;-69
2021/08/02 03:58:35;;;;;;;2.00;1.90;;;16.50;99.90;;;;;;5036561;28;20285;-69
2021/08/02 04:01:02;;;;;;;4.75;2.90;;;16.50;99.90;;;;;;5036274;28;20294;-69
2021/08/02 04:03:29;;;;;;;2.83;2.00;;;16.60;99.90;;;;;;5036152;28;20666;-69
2021/08/02 04:05:57;;;;;;;2.05;1.95;;;16.60;99.90;;;;;;5035931;28;20314;-69
2021/08/02 04:08:26;;;;;;;1.90;1.75;;;16.70;99.90;;;;;;5036330;28;20322;-69
2021/08/02 04:10:53;;;;;;;2.25;2.05;;;16.70;99.90;;;;;;5035886;28;20303;-69
2021/08/02 04:13:20;;;;;;;2.10;1.90;;;16.70;99.90;;;;;;5035878;28;20223;-69
2021/08/02 04:15:47;;;;;;;2.85;2.45;;;16.70;99.90;;;;;;5035840;28;20196;-69
2021/08/02 04:18:14;;;;;;;2.40;2.20;;;16.80;99.90;;;;;;5035883;28;20238;-69
2021/08/02 04:20:42;;;;;;;2.35;2.15;;;16.80;99.90;;;;;;5035619;28;20208;-69
2021/08/02 04:23:09;;;;;;;2.58;1.85;;;16.80;99.90;;;;;;5035902;28;20265;-69
2021/08/02 04:25:37;;;;;;;2.10;2.00;;;16.80;99.90;;;;;;5035617;28;20592;-69
2021/08/02 04:28:04;;;;;;;2.50;2.30;;;16.80;99.90;;;;;;5035900;28;20224;-68
2021/08/02 04:30:31;;;;;;;3.33;2.33;;;16.80;99.90;;;;;;5035482;28;20207;-69
2021/08/02 04:32:58;;;;;;;2.13;1.92;;;16.80;99.90;;;;;;5035721;28;20208;-69
2021/08/02 04:35:25;;;;;;;2.17;2.08;;;16.80;99.90;;;;;;5035428;28;20203;-69
2021/08/02 04:37:52;;;;;;;1.80;1.70;;;16.80;99.90;;;;;;5035570;28;20234;-69
2021/08/02 04:40:18;;;;;;;2.20;2.10;;;16.60;99.90;;;;;;5035597;28;20207;-69
2021/08/02 04:42:46;;;;;;;2.40;2.20;;;16.50;99.90;;;;;;5035545;28;20222;-69
2021/08/02 04:45:13;;;;;;;3.25;2.30;;;16.40;99.90;;;;;;5035231;28;20253;-69
2021/08/02 04:47:40;;;;;;;2.22;2.03;;;16.50;99.90;;;;;;5035297;28;20310;-69
2021/08/02 04:50:08;;;;;;;2.47;2.28;;;16.60;99.90;;;;;;5035423;28;20220;-69
2021/08/02 04:52:35;;;;;;;1.70;1.50;;;16.70;99.90;;;;;;5035145;28;20665;-69
2021/08/02 04:55:01;;;;;;;2.22;2.00;;;16.80;99.90;;;;;;5035114;28;20307;-69
2021/08/02 04:57:28;;;;;;;2.33;2.13;;;16.80;99.90;;;;;;5035247;28;20259;-69
2021/08/02 04:59:57;;;;;;;3.05;1.75;;;16.80;99.90;;;;;;5035272;28;20287;-69
2021/08/02 05:02:23;;;;;;;2.45;2.25;;;16.80;99.90;;;;;;5035065;28;20602;-69
2021/08/02 05:04:50;;;;;;;2.00;1.90;;;16.90;99.90;;;;;;5034909;28;20311;-70
2021/08/02 05:07:18;;;;;;;1.80;1.70;;;16.90;99.90;;;;;;5034795;28;20298;-69
2021/08/02 05:09:44;;;;;;;2.13;1.98;;;17.00;99.90;;;;;;5035028;28;20206;-69
2021/08/02 05:12:12;;;;;;;2.17;1.90;;;16.90;99.90;;;;;;5034953;28;20210;-69
2021/08/02 05:14:38;;;;;;;2.05;1.95;;;17.00;99.90;;;;;;5034918;28;20551;-69
2021/08/02 05:17:07;;;;;;;2.15;2.05;;;17.00;99.90;;;;;;5034578;28;20575;-68
2021/08/02 05:19:35;;;;;;;2.05;1.95;;;17.00;99.90;;;;;;5034913;28;20212;-69
2021/08/02 05:22:02;;;;;;;2.65;2.17;;;17.00;99.90;;;;;;5034515;28;20204;-69
2021/08/02 05:24:28;;;;;;;3.70;1.80;;;16.90;99.90;;;;;;5034611;28;20299;-69
2021/08/02 05:26:55;;;;;;;2.58;2.38;;;16.90;99.90;;;;;;5034370;28;20238;-69
2021/08/02 05:29:22;;;;;;;2.45;2.25;;;16.90;99.90;;;;;;5034660;28;20293;-69
2021/08/02 05:31:49;;;;;;;2.45;2.25;;;16.80;99.90;;;;;;5034508;28;20200;-69
2021/08/02 05:34:17;;;;;;;2.33;2.13;;;16.80;99.90;;;;;;5034391;28;20303;-69
2021/08/02 05:36:44;;;;;;;2.10;1.90;;;16.80;99.90;;;;;;5034250;28;20200;-69
2021/08/02 05:39:11;;;;;;;3.15;2.42;;;16.80;99.90;;;;;;5034504;28;20302;-69
2021/08/02 05:41:38;;;;;;;2.70;2.20;;;16.70;99.90;;;;;;5034452;28;20314;-69
2021/08/02 05:44:06;;;;;;;2.15;1.95;;;16.60;99.90;;;;;;5033732;28;20661;-69
2021/08/02 05:46:33;;;;;;;2.22;2.03;;;16.60;99.90;;;;;;5033788;28;20767;-69
2021/08/02 05:49:00;;;;;;;2.40;2.20;;;16.60;99.90;;;;;;5034640;28;20218;-69
2021/08/02 05:51:28;;;;;;;2.22;2.05;;;16.60;99.90;;;;;;5034100;28;20295;-69
2021/08/02 05:53:56;;;;;;;2.22;2.08;;;16.70;99.90;;;;;;5034452;28;20212;-69
2021/08/02 05:56:22;;;;;;;2.63;2.30;;;16.80;99.90;;;;;;5033994;28;20685;-69
2021/08/02 05:58:49;;;;;;;2.55;2.13;;;16.80;99.90;;;;;;5034621;28;20230;-69
2021/08/02 06:01:16;;;;;;;2.80;2.60;;;16.90;99.90;;;;;;5033873;28;20200;-69
2021/08/02 06:03:43;;;;;;;3.50;2.20;;;17.00;99.90;;;;;;5034060;28;20210;-69
2021/08/02 06:06:10;;;;;;;2.30;2.10;;;17.00;99.90;;;;;;5033769;28;20234;-69
2021/08/02 06:08:39;;;;;;;2.45;1.90;;;17.10;99.90;;;;;;5033641;28;20714;-69
2021/08/02 06:11:07;;;;;;;2.10;2.00;;;17.20;99.90;;;;;;5034049;28;20347;-69
2021/08/02 06:13:33;;;;;;;2.53;2.33;;;17.30;99.90;;;;;;5033610;28;20213;-69
2021/08/02 06:16:00;;;;;;;2.80;2.50;;;17.30;99.90;;;;;;5033536;28;20283;-69
2021/08/02 06:18:27;;;;;;;2.50;2.30;;;17.40;99.90;;;;;;5033848;28;20335;-69
2021/08/02 06:20:54;;;;;;;2.42;2.25;;;17.50;99.90;;;;;;5033950;28;20208;-69
2021/08/02 06:23:21;;;;;;;2.13;1.90;;;17.40;99.90;;;;;;5033761;28;20235;-69
2021/08/02 06:25:49;;;;;;;2.00;1.90;;;17.50;99.90;;;;;;5033292;28;20220;-69
2021/08/02 06:28:16;;;;;;;2.53;2.25;;;17.40;99.90;;;;;;5034200;28;20266;-69
2021/08/02 06:30:43;;;;;;;2.40;2.20;;;17.50;99.90;;;;;;5033619;28;20291;-69
2021/08/02 06:33:10;;;;;;;1.90;1.80;;;17.40;99.90;;;;;;5033632;28;20303;-69
2021/08/02 06:35:37;;;;;;;2.50;1.80;;;17.40;99.90;;;;;;5033339;28;20287;-69
2021/08/02 06:38:04;;;;;;;2.75;2.22;;;17.40;99.90;;;;;;5033287;28;20682;-70
2021/08/02 06:40:31;;;;;;;1.95;1.80;;;17.50;99.90;;;;;;5033322;28;20294;-69
2021/08/02 06:42:59;;;;;;;2.00;1.90;;;17.40;99.90;;;;;;5033563;28;20204;-69
2021/08/02 06:45:26;;;;;;;2.03;1.83;;;17.50;99.90;;;;;;5033292;28;20220;-69
2021/08/02 06:47:56;;;;;;;2.92;1.95;;;17.60;99.90;;;;;;5033233;28;20223;-69
2021/08/02 06:50:23;;;;;;;2.33;2.13;;;17.70;99.90;;;;;;5033527;28;20625;-69
2021/08/02 06:52:50;;;;;;;2.95;1.83;;;17.70;99.90;;;;;;5033374;28;20230;-70
2021/08/02 06:55:16;;;;;;;2.40;2.20;;;17.80;99.90;;;;;;5034310;28;20295;-69
2021/08/02 06:57:43;;;;;;;1.92;1.83;;;17.80;99.90;;;;;;5037740;28;20224;-69
2021/08/02 07:00:12;;;;;;;2.00;1.90;;;17.80;99.90;;;;;;5037295;28;20203;-69
2021/08/02 07:02:39;;;;;;;2.38;1.90;;;17.90;99.90;;;;;;5037373;28;20200;-69
2021/08/02 07:05:07;;;;;;;2.42;2.13;;;17.90;99.90;;;;;;5037168;28;20295;-69
2021/08/02 07:07:34;;;;;;;2.50;2.10;;;17.90;99.90;;;;;;5037202;28;20231;-69
2021/08/02 07:10:01;;;;;;;2.05;1.92;;;18.00;99.90;;;;;;5037279;28;20204;-69
2021/08/02 07:12:27;;;;;;;1.60;1.50;;;18.10;99.90;;;;;;5037072;28;20745;-69
2021/08/02 07:14:54;;;;;;;2.30;1.90;;;18.20;99.90;;;;;;5036992;28;20235;-70
2021/08/02 07:17:22;;;;;;;1.58;1.48;;;18.40;99.90;;;;;;5036758;28;20315;-69
2021/08/02 07:19:49;;;;;;;2.20;2.00;;;18.50;99.90;;;;;;5037075;28;20204;-69
2021/08/02 07:22:16;;;;;;;1.50;1.40;;;18.60;99.90;;;;;;5037503;28;20212;-69
2021/08/02 07:24:43;;;;;;;2.17;2.07;;;18.60;99.90;;;;;;5037208;28;20211;-69
2021/08/02 07:27:10;;;;;;;1.90;1.80;;;18.60;99.90;;;;;;5036777;28;20567;-69
2021/08/02 07:29:37;;;;;;;3.00;1.90;;;18.70;99.90;;;;;;5036764;28;20758;-69
2021/08/02 07:32:04;;;;;;;2.37;1.97;;;18.80;99.90;;;;;;5036847;28;20302;-69
2021/08/02 07:34:32;;;;;;;2.10;2.00;;;18.80;99.90;;;;;;5036797;28;20452;-69
2021/08/02 07:36:59;;;;;;;1.40;1.30;;;19.00;99.90;;;;;;5036767;28;20555;-69
2021/08/02 07:39:26;;;;;;;1.57;1.47;;;19.10;99.90;;;;;;5036801;28;20448;-69
2021/08/02 07:41:53;;;;;;;1.90;1.80;;;19.20;99.90;;;;;;5036692;28;20535;-69
2021/08/02 07:44:19;;;;;;;2.10;2.00;;;19.40;99.90;;;;;;5036647;28;20809;-69
2021/08/02 07:46:46;;;;;;;1.50;1.40;;;19.40;99.90;;;;;;5036419;28;20839;-69
2021/08/02 07:49:13;;;;;;;1.40;1.30;;;19.70;99.90;;;;;;5036571;28;20452;-69
2021/08/02 07:51:41;;;;;;;3.00;1.67;;;19.80;99.90;;;;;;5036275;28;20528;-69
2021/08/02 07:54:09;;;;;;;1.70;1.60;;;19.80;99.90;;;;;;5036459;28;20541;-69
2021/08/02 07:56:36;;;;;;;1.80;1.70;;;19.70;99.90;;;;;;5036194;28;20444;-69
2021/08/02 07:59:03;;;;;;;1.50;1.40;;;19.90;99.90;;;;;;5036466;28;20532;-69
2021/08/02 08:01:29;;;;;;;2.20;1.93;;;19.80;99.90;;;;;;5036275;28;20807;-69
2021/08/02 08:03:56;;;;;;;1.70;1.60;;;19.90;99.90;;;;;;5036203;28;20450;-69
2021/08/02 08:06:24;;;;;;;1.93;1.83;;;20.00;99.90;;;;;;5035424;28;20527;-69
2021/08/02 08:08:52;;;;;;;2.47;1.63;;;20.20;99.90;;;;;;5035856;28;20565;-69
2021/08/02 08:11:19;;;;;;;1.30;1.20;;;20.30;99.90;;;;;;5036172;28;20485;-69
2021/08/02 08:13:46;;;;;;;2.20;1.83;;;20.80;99.90;;;;;;5036029;28;20450;-69
2021/08/02 08:16:13;;;;;;;1.40;1.30;;;21.00;99.90;;;;;;5035572;28;20550;-70
2021/08/02 08:18:40;;;;;;;1.67;1.57;;;21.30;99.90;;;;;;5036003;28;20481;-69
2021/08/02 08:21:06;;;;;;;3.70;1.67;;;21.70;99.90;;;;;;5035988;28;20478;-69
2021/08/02 08:23:34;;;;;;;1.60;1.50;;;22.20;99.90;;;;;;5035908;28;20462;-69
2021/08/02 08:26:03;;;;;;;1.53;1.43;;;22.80;99.90;;;;;;5035398;28;21047;-69
2021/08/02 08:28:30;;;;;;;1.60;1.50;;;23.30;99.90;;;;;;5035545;28;20469;-69
2021/08/02 08:30:57;;;;;;;1.53;1.27;;;23.90;99.40;;;;;;5035769;28;20545;-69
2021/08/02 08:33:26;;;;;;;1.47;1.37;;;23.70;99.00;;;;;;5035796;28;20796;-69
2021/08/02 08:35:54;;;;;;;1.10;1.10;;;23.80;97.20;;;;;;5035631;28;20536;-69
2021/08/02 08:38:21;;;;;;;1.77;1.67;;;24.10;96.10;;;;;;5035409;28;20474;-69
2021/08/02 08:40:49;;;;;;;2.10;1.40;;;24.60;94.60;;;;;;5035625;28;20860;-69
2021/08/02 08:43:19;;;;;;;2.10;1.67;;;25.20;94.10;;;;;;5035671;28;20466;-69
2021/08/02 08:45:46;;;;;;;1.47;1.30;;;25.50;92.20;;;;;;5035346;28;20530;-69
2021/08/02 08:48:13;;;;;;;1.50;1.40;;;25.80;91.20;;;;;;5035467;28;20462;-69
2021/08/02 08:50:41;;;;;;;1.60;1.50;;;25.60;90.80;;;;;;5035312;28;20939;-69
2021/08/02 08:53:11;;;;;;;1.60;1.50;;;25.50;90.90;;;;;;5035389;28;20446;-69
2021/08/02 08:55:42;;;;;;;1.60;1.50;;;25.40;91.50;;;;;;5035153;28;20804;-69
2021/08/02 08:58:08;;;;;;;1.67;1.57;;;24.70;91.60;;;;;;5035074;28;20879;-69
2021/08/02 09:00:37;;;;;;;2.00;1.60;;;24.10;94.10;;;;;;5035198;28;20532;-69
2021/08/02 09:03:09;;;;;;;1.50;1.40;;;23.70;94.90;;;;;;5035201;28;20450;-69
2021/08/02 09:05:37;;;;;;;1.30;1.20;;;23.40;94.30;;;;;;5035174;28;20448;-69
2021/08/02 09:08:04;;;;;;;1.40;1.40;;;23.20;93.90;;;;;;5034769;28;20492;-69
2021/08/02 09:10:31;;;;;;;1.77;1.40;;;23.00;92.90;;;;;;5035051;28;20467;-69
2021/08/02 09:13:00;;;;;;;1.20;1.10;;;23.20;93.40;;;;;;5035008;28;20813;-69
2021/08/02 09:15:39;;;;;;;1.23;1.23;;;23.70;94.00;;;;;;5034681;28;20450;-69
2021/08/02 09:18:08;;;;;;;1.47;1.37;;;24.20;92.00;;;;;;5033893;28;20481;-69
2021/08/02 09:20:36;;;;;;;1.87;1.60;;;24.80;91.80;;;;;;5034877;28;20455;-69
2021/08/02 09:23:08;;;;;;;1.30;1.20;;;25.40;90.10;;;;;;5034844;28;20445;-70
2021/08/02 09:25:35;;;;;;;1.33;1.23;;;25.80;86.40;;;;;;5034592;28;20447;-70
2021/08/02 09:28:12;;;;;;;1.63;1.53;;;26.80;85.70;;;;;;5034744;28;20580;-69
2021/08/02 09:30:40;;;;;;;1.60;1.50;;;29.20;80.00;;;;;;5034858;28;20434;-70
2021/08/02 09:33:09;;;;;;;1.50;1.37;;;31.00;66.90;;;;;;5034557;28;20452;-70
2021/08/02 09:35:39;;;;;;;1.20;1.17;;;31.60;61.00;;;;;;5034673;28;20504;-70
2021/08/02 09:38:08;;;;;;;1.67;1.57;;;32.70;56.90;;;;;;5034569;28;20524;-70
2021/08/02 09:40:41;;;;;;;1.27;1.17;;;33.60;54.70;;;;;;5034481;28;20529;-70
2021/08/02 09:43:11;;;;;;;1.60;1.50;;;33.40;50.70;;;;;;5034424;28;20442;-70
2021/08/02 09:45:44;;;;;;;1.03;1.03;;;34.20;50.60;;;;;;5033948;28;20461;-70
2021/08/02 09:48:13;;;;;;;1.30;1.30;;;34.50;48.20;;;;;;5034343;28;20917;-70
2021/08/02 09:50:43;;;;;;;1.50;1.33;;;35.30;45.80;;;;;;5034619;28;20447;-70
2021/08/02 09:53:13;;;;;;;1.40;1.37;;;35.60;44.40;;;;;;5034249;28;20442;-70
2021/08/02 09:55:42;;;;;;;1.50;1.40;;;34.80;44.70;;;;;;5034379;28;20438;-70
2021/08/02 09:58:10;;;;;;;1.57;1.47;;;34.10;45.80;;;;;;5033888;28;20502;-70
2021/08/02 10:00:38;;;;;;;1.50;1.40;;;32.60;47.90;;;;;;5034114;28;20525;-70
2021/08/02 10:03:07;;;;;;;1.77;1.67;;;32.30;50.50;;;;;;5033920;28;20539;-70
2021/08/02 10:05:37;;;;;;;1.30;1.30;;;31.30;51.40;;;;;;5033678;28;20929;-70
2021/08/02 10:08:04;;;;;;;1.50;1.50;;;31.30;51.40;;;;;;5033896;28;20490;-70
2021/08/02 10:10:32;;;;;;;1.43;1.33;;;31.20;51.50;;;;;;5034002;28;20794;-70
2021/08/02 10:12:59;;;;;;;1.97;1.87;;;30.30;52.60;;;;;;5033889;28;20446;-70
2021/08/02 10:15:27;;;;;;;1.60;1.50;;;28.90;55.60;;;;;;5034142;28;20445;-70
2021/08/02 10:17:56;;;;;;;1.50;1.30;;;27.90;56.10;;;;;;5033650;28;20474;-69
2021/08/02 10:20:27;;;;;;;1.60;1.50;;;27.00;59.20;;;;;;5033698;28;20952;-69
2021/08/02 10:22:54;;;;;;;1.50;1.40;;;25.90;63.80;;;;;;5033840;28;20537;-69
2021/08/02 10:25:35;;;;;;;1.60;1.50;;;25.00;73.70;;;;;;5033427;28;20544;-69
2021/08/02 10:28:10;;;;;;;1.80;1.53;;;24.70;86.90;;;;;;5033723;28;20491;-69
2021/08/02 10:30:38;;;;;;;1.80;1.60;;;24.50;91.60;;;;;;5033444;28;20449;-69
2021/08/02 10:33:05;;;;;;;1.73;1.47;;;24.20;90.60;;;;;;5033723;28;20448;-69
2021/08/02 10:35:41;;;;;;;1.37;1.30;;;23.70;91.40;;;;;;5033392;28;20458;-69
2021/08/02 10:38:12;;;;;;;1.73;1.63;;;23.00;92.40;;;;;;5033629;28;20467;-69
2021/08/02 10:40:50;;;;;;;1.80;1.70;;;22.30;94.80;;;;;;5033866;28;20449;-69
2021/08/02 10:43:31;;;;;;;2.37;2.17;;;;;;;;;;5033445;28;20455;-69
2021/08/02 10:45:59;;;;;;;2.20;2.00;;;19.90;99.90;;;;;;5033185;28;20455;-69
2021/08/02 10:48:27;;;;;;;1.77;1.67;;;19.60;99.90;;;;;;5033399;28;20854;-69
2021/08/02 10:50:56;;;;;;;2.57;2.10;;;19.50;99.90;;;;;;5033526;28;20449;-69
2021/08/02 10:53:24;;;;;;;3.17;2.20;;;19.70;99.90;;;;;;5033485;28;20454;-69
2021/08/02 10:55:52;;;;;;;2.60;1.93;;;19.80;99.90;;;;;;5033280;28;20450;-68
2021/08/02 10:58:28;;;;;;;1.80;1.70;;;19.80;99.90;;;;;;5033333;28;20563;-68
2021/08/02 11:00:56;;;;;;;2.92;2.33;;;19.50;99.90;;;;;;5033385;28;20470;-68
2021/08/02 11:03:34;;;;;;;2.95;1.80;;;19.20;99.90;;;;;;5033192;28;20299;-68
2021/08/02 11:06:12;;;;;;;2.35;2.15;;;19.00;99.90;;;;;;5033073;28;20294;-68
2021/08/02 11:08:48;;;;;;;1.83;1.73;;;18.80;99.90;;;;;;5033251;28;20594;-68
2021/08/02 11:11:24;;;;;;;2.53;1.95;;;18.80;99.90;;;;;;5033253;28;20218;-68
2021/08/02 11:13:52;;;;;;;1.83;1.42;;;18.70;99.90;;;;;;5033283;28;20564;-68
2021/08/02 11:16:19;;;;;;;4.25;2.17;;;18.60;99.90;;;;;;5032848;28;20765;-68
2021/08/02 11:18:47;;;;;;;2.20;2.00;;;18.60;99.90;;;;;;5033256;28;20310;-68
2021/08/02 11:21:28;;;;;;;1.33;1.30;;;18.40;99.90;;;;;;5033226;28;20207;-68
2021/08/02 11:23:55;;;;;;;1.38;1.20;;;18.30;99.90;;;;;;5033328;28;20208;-68
2021/08/02 11:26:23;;;;;;;1.60;1.50;;;18.20;99.90;;;;;;5033031;28;20295;-68
2021/08/02 11:28:54;;;;;;;1.83;1.73;;;18.00;99.90;;;;;;5033063;28;20239;-68
2021/08/02 11:31:26;;;;;;;0.80;0.80;;;17.90;99.90;;;;;;5033146;28;20209;-68
2021/08/02 11:33:52;;;;;;;1.48;1.10;;;17.90;99.90;;;;;;5033096;28;20204;-68
2021/08/02 11:36:21;;;;;;;2.50;1.27;;;17.90;99.90;;;;;;5032739;28;20299;-68
2021/08/02 11:38:50;;;;;;;1.33;1.23;;;18.40;99.90;;;;;;5033179;28;20217;-68
2021/08/02 11:41:28;;;;;;;1.13;1.13;;;18.90;99.90;;;;;;5034158;28;20208;-68
2021/08/02 11:43:57;;;;;;;1.27;1.17;;;19.30;99.90;;;;;;5036630;28;20540;-68
2021/08/02 11:46:24;;;;;;;1.33;1.23;;;19.80;99.90;;;;;;5036322;28;20526;-68
2021/08/02 11:48:51;;;;;;;2.30;1.40;;;20.10;99.90;;;;;;5036190;28;20573;-68
2021/08/02 11:51:19;;;;;;;1.20;1.10;;;20.30;99.90;;;;;;5036353;28;20456;-68
2021/08/02 11:53:46;;;;;;;1.33;1.23;;;20.30;99.90;;;;;;5036515;28;20452;-68
2021/08/02 11:56:14;;;;;;;1.40;1.30;;;20.30;99.90;;;;;;5036136;28;20468;-68
2021/08/02 11:58:43;;;;;;;1.67;1.40;;;20.20;99.90;;;;;;5036491;28;20883;-68
2021/08/02 12:01:10;;;;;;;1.80;1.70;;;19.90;99.90;;;;;;5036255;28;20451;-68
2021/08/02 12:03:37;;;;;;;1.20;1.10;;;19.80;99.90;;;;;;5036325;28;20540;-68
2021/08/02 12:06:06;;;;;;;1.90;1.30;;;19.70;99.90;;;;;;5036010;28;20482;-68
2021/08/02 12:08:33;;;;;;;1.87;1.70;;;19.60;99.90;;;;;;5036055;28;20493;-68
2021/08/02 12:11:01;;;;;;;1.90;1.63;;;19.50;99.90;;;;;;5036018;28;20448;-68
2021/08/02 12:13:41;;;;;;;1.93;1.83;;;19.40;99.90;;;;;;5036117;28;20807;-68
2021/08/02 12:16:08;;;;;;;1.70;1.60;;;19.30;99.90;;;;;;5035775;28;20462;-68
2021/08/02 12:18:36;;;;;;;1.90;1.65;;;19.20;99.90;;;;;;5035990;28;20469;-68
2021/08/02 12:21:14;;;;;;;1.90;1.80;;;19.10;99.90;;;;;;5036012;28;20209;-68
2021/08/02 12:23:42;;;;;;;1.70;1.60;;;19.00;99.90;;;;;;5035855;28;20526;-68
2021/08/02 12:26:20;;;;;;;1.90;1.75;;;18.90;99.90;;;;;;5035549;28;20212;-68
2021/08/02 12:28:49;;;;;;;1.42;1.33;;;18.70;99.90;;;;;;5035486;28;20232;-68
2021/08/02 12:31:17;;;;;;;1.70;1.60;;;18.50;99.90;;;;;;5035641;28;20206;-68
2021/08/02 12:33:46;;;;;;;1.30;1.00;;;18.30;99.90;;;;;;5035772;28;20290;-68
2021/08/02 12:36:14;;;;;;;0.95;0.90;;;18.30;99.90;;;;;;5035356;28;20209;-68
2021/08/02 12:38:46;;;;;;;1.58;1.23;;;18.30;99.90;;;;;;5035785;28;20311;-69
2021/08/02 12:41:13;;;;;;;1.05;1.02;;;18.40;99.90;;;;;;5035624;28;20204;-68
2021/08/02 12:43:42;;;;;;;1.10;1.10;;;18.50;99.90;;;;;;5035602;28;20262;-68
2021/08/02 12:46:10;;;;;;;1.00;1.00;;;18.80;99.90;;;;;;5035273;28;20216;-69
2021/08/02 12:48:37;;;;;;;1.20;1.10;;;18.90;99.90;;;;;;5035405;28;20241;-68
2021/08/02 12:51:04;;;;;;;1.87;1.77;;;19.20;99.90;;;;;;5035433;28;20540;-68
2021/08/02 12:53:31;;;;;;;1.43;1.30;;;19.70;99.90;;;;;;5035067;28;20453;-68
2021/08/02 12:55:58;;;;;;;1.20;1.17;;;20.00;99.90;;;;;;5035185;28;20785;-68
2021/08/02 12:58:24;;;;;;;1.70;1.30;;;20.20;99.90;;;;;;5035283;28;20489;-68